sensor_id;sensor_type;location;lat;lon;timestamp;pressure;altitude;pressure_sealevel;temperature;humidity
57894;BME280;43710;47.460;19.034;2022-12-19T05:01:02;102832.06;;;2.72;100.00
57894;BME280;43710;47.460;19.034;2022-12-19T05:04:05;102832.06;;;2.72;100.00
57894;BME280;43710;47.460;19.034;2022-12-19T05:07:07;102833.03;;;1.97;87.79
57894;BME280;43710;47.460;19.034;2022-12-19T05:10:09;102831.03;;;1.83;82.10
57894;BME280;43710;47.460;19.034;2022-12-19T05:13:11;102834.31;;;1.77;81.63
57894;BME280;43710;47.460;19.034;2022-12-19T05:16:14;102839.41;;;1.78;80.26
57894;BME280;43710;47.460;19.034;2022-12-19T05:19:17;102848.69;;;1.74;80.35
57894;BME280;43710;47.460;19.034;2022-12-19T05:22:19;102843.06;;;1.77;88.43
57894;BME280;43710;47.460;19.034;2022-12-19T05:25:21;102843.78;;;1.96;97.31
57894;BME280;43710;47.460;19.034;2022-12-19T05:28:25;102838.66;;;2.10;88.87
57894;BME280;43710;47.460;19.034;2022-12-19T05:31:27;102841.00;;;2.05;93.51
57894;BME280;43710;47.460;19.034;2022-12-19T05:34:31;102838.47;;;1.79;81.06
57894;BME280;43710;47.460;19.034;2022-12-19T05:37:33;102836.47;;;1.81;81.28
57894;BME280;43710;47.460;19.034;2022-12-19T05:40:36;102819.81;;;1.89;85.25
57894;BME280;43710;47.460;19.034;2022-12-19T05:43:38;102824.06;;;1.82;80.45
57894;BME280;43710;47.460;19.034;2022-12-19T05:46:40;102827.69;;;1.81;80.59
57894;BME280;43710;47.460;19.034;2022-12-19T05:49:43;102839.28;;;1.80;85.07
57894;BME280;43710;47.460;19.034;2022-12-19T05:52:45;102838.97;;;1.83;81.93
57894;BME280;43710;47.460;19.034;2022-12-19T05:55:47;102834.28;;;1.69;89.75
57894;BME280;43710;47.460;19.034;2022-12-19T05:58:49;102830.84;;;1.76;86.84
57894;BME280;43710;47.460;19.034;2022-12-19T06:01:52;102832.88;;;1.99;95.73
57894;BME280;43710;47.460;19.034;2022-12-19T06:04:55;102831.59;;;2.52;100.00
57894;BME280;43710;47.460;19.034;2022-12-19T06:07:57;102825.63;;;2.50;88.73
57894;BME280;43710;47.460;19.034;2022-12-19T06:11:02;102825.94;;;2.63;90.38
57894;BME280;43710;47.460;19.034;2022-12-19T06:14:06;102836.87;;;2.35;81.71
57894;BME280;43710;47.460;19.034;2022-12-19T06:17:08;102840.34;;;2.36;84.02
57894;BME280;43710;47.460;19.034;2022-12-19T06:20:11;102841.00;;;2.54;94.48
57894;BME280;43710;47.460;19.034;2022-12-19T06:23:13;102843.50;;;2.40;98.44
57894;BME280;43710;47.460;19.034;2022-12-19T06:26:17;102846.47;;;2.37;89.45
57894;BME280;43710;47.460;19.034;2022-12-19T06:29:21;102853.09;;;2.57;94.94
57894;BME280;43710;47.460;19.034;2022-12-19T06:32:23;102843.97;;;2.68;85.64
57894;BME280;43710;47.460;19.034;2022-12-19T06:35:26;102850.44;;;2.65;85.15
57894;BME280;43710;47.460;19.034;2022-12-19T06:38:29;102852.09;;;2.66;85.95
57894;BME280;43710;47.460;19.034;2022-12-19T06:41:31;102860.16;;;2.81;98.57
57894;BME280;43710;47.460;19.034;2022-12-19T06:44:53;102852.56;;;2.86;91.59
57894;BME280;43710;47.460;19.034;2022-12-19T06:47:57;102858.16;;;2.91;82.07
57894;BME280;43710;47.460;19.034;2022-12-19T06:51:00;102853.22;;;2.88;88.76
57894;BME280;43710;47.460;19.034;2022-12-19T06:54:03;102858.81;;;3.10;90.96
57894;BME280;43710;47.460;19.034;2022-12-19T06:57:05;102854.41;;;3.33;96.52
57894;BME280;43710;47.460;19.034;2022-12-19T07:00:09;102846.06;;;3.52;90.89
57894;BME280;43710;47.460;19.034;2022-12-19T07:03:17;102851.25;;;3.38;99.04
57894;BME280;43710;47.460;19.034;2022-12-19T07:06:21;102851.09;;;3.31;85.01
57894;BME280;43710;47.460;19.034;2022-12-19T07:09:25;102857.69;;;2.88;80.77
57894;BME280;43710;47.460;19.034;2022-12-19T07:12:28;102864.31;;;3.47;95.86
57894;BME280;43710;47.460;19.034;2022-12-19T07:15:32;102873.34;;;3.22;88.58
57894;BME280;43710;47.460;19.034;2022-12-19T07:18:37;102874.16;;;3.30;86.45
57894;BME280;43710;47.460;19.034;2022-12-19T07:21:40;102866.31;;;3.45;91.10
57894;BME280;43710;47.460;19.034;2022-12-19T07:24:43;102877.53;;;3.56;92.23
57894;BME280;43710;47.460;19.034;2022-12-19T07:27:46;102867.47;;;3.43;82.04
57894;BME280;43710;47.460;19.034;2022-12-19T07:30:48;102859.00;;;3.47;94.86
57894;BME280;43710;47.460;19.034;2022-12-19T07:33:51;102859.12;;;3.54;89.74
57894;BME280;43710;47.460;19.034;2022-12-19T07:36:53;102869.88;;;3.61;93.14
57894;BME280;43710;47.460;19.034;2022-12-19T07:39:55;102867.63;;;3.81;97.09
57894;BME280;43710;47.460;19.034;2022-12-19T07:43:01;102868.69;;;3.71;90.28
57894;BME280;43710;47.460;19.034;2022-12-19T07:46:04;102868.09;;;3.61;88.48
57894;BME280;43710;47.460;19.034;2022-12-19T07:49:06;102856.06;;;3.42;90.96
57894;BME280;43710;47.460;19.034;2022-12-19T07:52:09;102856.34;;;3.08;79.32
57894;BME280;43710;47.460;19.034;2022-12-19T07:55:11;102863.56;;;3.22;76.11
57894;BME280;43710;47.460;19.034;2022-12-19T07:58:14;102859.97;;;3.07;79.38
57894;BME280;43710;47.460;19.034;2022-12-19T08:01:17;102864.78;;;3.03;91.04
57894;BME280;43710;47.460;19.034;2022-12-19T08:04:19;102885.34;;;3.01;91.06
57894;BME280;43710;47.460;19.034;2022-12-19T08:07:21;102874.03;;;3.08;94.56
57894;BME280;43710;47.460;19.034;2022-12-19T08:10:24;102874.78;;;3.41;86.22
57894;BME280;43710;47.460;19.034;2022-12-19T08:13:29;102874.88;;;3.08;71.32
57894;BME280;43710;47.460;19.034;2022-12-19T08:16:39;102890.00;;;3.47;92.04
57894;BME280;43710;47.460;19.034;2022-12-19T08:20:02;102894.75;;;3.04;78.07
57894;BME280;43710;47.460;19.034;2022-12-19T08:23:04;102893.97;;;2.95;82.46
57894;BME280;43710;47.460;19.034;2022-12-19T08:26:09;102897.56;;;3.19;91.77
57894;BME280;43710;47.460;19.034;2022-12-19T08:29:14;102898.28;;;2.88;79.12
57894;BME280;43710;47.460;19.034;2022-12-19T08:32:16;102890.38;;;3.27;80.56
57894;BME280;43710;47.460;19.034;2022-12-19T08:35:22;102886.66;;;3.05;80.43
57894;BME280;43710;47.460;19.034;2022-12-19T08:38:24;102883.84;;;2.74;74.86
57894;BME280;43710;47.460;19.034;2022-12-19T08:41:26;102874.88;;;3.08;83.17
57894;BME280;43710;47.460;19.034;2022-12-19T08:44:29;102882.59;;;3.34;98.70
57894;BME280;43710;47.460;19.034;2022-12-19T08:47:32;102869.75;;;3.54;83.08
57894;BME280;43710;47.460;19.034;2022-12-19T08:50:34;102875.75;;;3.48;89.08
57894;BME280;43710;47.460;19.034;2022-12-19T08:53:37;102874.53;;;3.19;78.97
57894;BME280;43710;47.460;19.034;2022-12-19T08:56:40;102874.63;;;3.42;77.88
57894;BME280;43710;47.460;19.034;2022-12-19T08:59:47;102873.75;;;3.50;77.34
57894;BME280;43710;47.460;19.034;2022-12-19T09:02:50;102865.44;;;3.53;77.31
57894;BME280;43710;47.460;19.034;2022-12-19T09:05:57;102865.16;;;3.40;88.59
57894;BME280;43710;47.460;19.034;2022-12-19T09:09:11;102875.19;;;3.21;79.29
57894;BME280;43710;47.460;19.034;2022-12-19T09:12:14;102867.09;;;3.15;84.21
57894;BME280;43710;47.460;19.034;2022-12-19T09:15:17;102862.50;;;3.48;83.69
57894;BME280;43710;47.460;19.034;2022-12-19T09:18:19;102861.47;;;3.88;84.32
57894;BME280;43710;47.460;19.034;2022-12-19T09:21:27;102863.94;;;3.90;76.68
57894;BME280;43710;47.460;19.034;2022-12-19T09:24:30;102870.81;;;3.76;80.85
57894;BME280;43710;47.460;19.034;2022-12-19T09:27:32;102870.47;;;3.48;76.06
57894;BME280;43710;47.460;19.034;2022-12-19T09:30:56;102883.78;;;3.71;84.26
57894;BME280;43710;47.460;19.034;2022-12-19T09:33:58;102885.22;;;3.34;76.93
57894;BME280;43710;47.460;19.034;2022-12-19T09:37:01;102875.88;;;3.15;66.77
57894;BME280;43710;47.460;19.034;2022-12-19T09:40:03;102872.84;;;3.35;83.12
57894;BME280;43710;47.460;19.034;2022-12-19T09:43:12;102856.87;;;3.82;84.37
57894;BME280;43710;47.460;19.034;2022-12-19T09:49:46;102845.03;;;3.93;65.90
57894;BME280;43710;47.460;19.034;2022-12-19T09:52:56;102842.19;;;3.94;81.36
57894;BME280;43710;47.460;19.034;2022-12-19T09:56:01;102838.47;;;4.04;83.90
57894;BME280;43710;47.460;19.034;2022-12-19T09:59:12;102836.94;;;3.86;76.05
57894;BME280;43710;47.460;19.034;2022-12-19T10:05:56;102830.06;;;3.69;84.97
57894;BME280;43710;47.460;19.034;2022-12-19T10:09:23;102818.94;;;3.73;72.45
57894;BME280;43710;47.460;19.034;2022-12-19T10:13:25;102817.72;;;3.84;71.91
57894;BME280;43710;47.460;19.034;2022-12-19T10:16:46;102804.34;;;3.78;73.61
57894;BME280;43710;47.460;19.034;2022-12-19T10:20:16;102814.66;;;3.95;78.70
57894;BME280;43710;47.460;19.034;2022-12-19T10:26:45;102819.87;;;3.58;67.35
57894;BME280;43710;47.460;19.034;2022-12-19T10:30:31;102811.97;;;3.72;78.22
57894;BME280;43710;47.460;19.034;2022-12-19T10:36:46;102808.34;;;3.96;81.87
57894;BME280;43710;47.460;19.034;2022-12-19T10:46:47;102784.00;;;4.68;78.38
57894;BME280;43710;47.460;19.034;2022-12-19T10:49:54;102786.25;;;4.57;71.32
57894;BME280;43710;47.460;19.034;2022-12-19T10:56:12;102778.38;;;4.48;76.35
57894;BME280;43710;47.460;19.034;2022-12-19T10:59:23;102774.44;;;4.44;81.61
57894;BME280;43710;47.460;19.034;2022-12-19T11:02:33;102770.03;;;4.14;64.53
57894;BME280;43710;47.460;19.034;2022-12-19T11:08:42;102777.16;;;3.98;70.45
57894;BME280;43710;47.460;19.034;2022-12-19T11:11:55;102772.09;;;4.27;84.18
57894;BME280;43710;47.460;19.034;2022-12-19T11:15:18;102760.88;;;4.39;74.37
57894;BME280;43710;47.460;19.034;2022-12-19T11:18:45;102767.16;;;4.00;63.08
57894;BME280;43710;47.460;19.034;2022-12-19T11:22:19;102765.44;;;4.31;77.11
57894;BME280;43710;47.460;19.034;2022-12-19T11:25:43;102760.66;;;4.26;69.44
57894;BME280;43710;47.460;19.034;2022-12-19T11:29:26;102760.16;;;4.45;90.32
57894;BME280;43710;47.460;19.034;2022-12-19T11:33:13;102756.81;;;4.29;62.32
57894;BME280;43710;47.460;19.034;2022-12-19T11:40:05;102756.41;;;4.55;71.54
57894;BME280;43710;47.460;19.034;2022-12-19T11:43:25;102746.59;;;4.55;71.15
57894;BME280;43710;47.460;19.034;2022-12-19T11:46:58;102734.69;;;4.66;76.57
57894;BME280;43710;47.460;19.034;2022-12-19T11:50:26;102725.66;;;4.60;75.29
57894;BME280;43710;47.460;19.034;2022-12-19T11:53:34;102714.53;;;4.86;76.70
57894;BME280;43710;47.460;19.034;2022-12-19T11:56:40;102712.62;;;4.51;66.38
57894;BME280;43710;47.460;19.034;2022-12-19T11:59:43;102712.84;;;4.26;65.01
57894;BME280;43710;47.460;19.034;2022-12-19T12:03:18;102707.59;;;4.41;73.51
57894;BME280;43710;47.460;19.034;2022-12-19T12:06:32;102704.19;;;4.47;67.35
57894;BME280;43710;47.460;19.034;2022-12-19T12:21:21;102700.91;;;4.75;74.09
57894;BME280;43710;47.460;19.034;2022-12-19T12:29:10;102693.00;;;4.81;73.02
57894;BME280;43710;47.460;19.034;2022-12-19T12:32:59;102692.56;;;4.48;67.86
57894;BME280;43710;47.460;19.034;2022-12-19T12:36:49;102690.78;;;4.26;64.87
57894;BME280;43710;47.460;19.034;2022-12-19T12:47:18;102682.03;;;4.55;72.30
57894;BME280;43710;47.460;19.034;2022-12-19T12:50:24;102683.38;;;4.36;72.73
57894;BME280;43710;47.460;19.034;2022-12-19T12:53:34;102690.53;;;4.50;80.66
57894;BME280;43710;47.460;19.034;2022-12-19T12:56:38;102681.00;;;4.56;74.52
57894;BME280;43710;47.460;19.034;2022-12-19T12:59:44;102680.72;;;4.65;75.29
57894;BME280;43710;47.460;19.034;2022-12-19T13:03:16;102668.81;;;4.46;64.17
57894;BME280;43710;47.460;19.034;2022-12-19T13:09:33;102661.59;;;4.26;77.60
57894;BME280;43710;47.460;19.034;2022-12-19T13:12:52;102665.44;;;4.08;64.57
57894;BME280;43710;47.460;19.034;2022-12-19T13:16:29;102668.38;;;3.90;73.39
57894;BME280;43710;47.460;19.034;2022-12-19T13:19:29;102665.31;;;4.02;67.73
57894;BME280;43710;47.460;19.034;2022-12-19T13:28:39;102655.81;;;4.37;75.43
57894;BME280;43710;47.460;19.034;2022-12-19T13:32:08;102660.31;;;4.21;72.97
57894;BME280;43710;47.460;19.034;2022-12-19T13:38:47;102651.06;;;4.17;68.36
57894;BME280;43710;47.460;19.034;2022-12-19T13:42:15;102642.56;;;4.22;78.25
57894;BME280;43710;47.460;19.034;2022-12-19T13:45:38;102639.69;;;4.53;91.90
57894;BME280;43710;47.460;19.034;2022-12-19T13:49:06;102631.38;;;4.27;75.09
57894;BME280;43710;47.460;19.034;2022-12-19T13:52:11;102636.97;;;4.32;88.50
57894;BME280;43710;47.460;19.034;2022-12-19T13:55:18;102637.88;;;4.39;71.10
57894;BME280;43710;47.460;19.034;2022-12-19T14:01:51;102648.22;;;3.66;74.60
57894;BME280;43710;47.460;19.034;2022-12-19T14:04:54;102647.19;;;4.05;80.85
57894;BME280;43710;47.460;19.034;2022-12-19T14:07:57;102641.56;;;4.38;85.16
57894;BME280;43710;47.460;19.034;2022-12-19T14:11:00;102636.41;;;4.36;74.87
57894;BME280;43710;47.460;19.034;2022-12-19T14:14:23;102638.25;;;4.36;75.38
57894;BME280;43710;47.460;19.034;2022-12-19T14:17:47;102643.19;;;4.54;77.39
57894;BME280;43710;47.460;19.034;2022-12-19T14:24:33;102637.00;;;3.94;67.53
57894;BME280;43710;47.460;19.034;2022-12-19T14:27:38;102636.53;;;3.90;84.57
57894;BME280;43710;47.460;19.034;2022-12-19T14:31:06;102630.19;;;4.29;86.25
57894;BME280;43710;47.460;19.034;2022-12-19T14:34:24;102627.31;;;3.86;70.96
57894;BME280;43710;47.460;19.034;2022-12-19T14:37:58;102626.84;;;3.83;84.62
57894;BME280;43710;47.460;19.034;2022-12-19T14:44:52;102633.37;;;3.95;78.51
57894;BME280;43710;47.460;19.034;2022-12-19T14:48:32;102629.34;;;3.99;69.31
57894;BME280;43710;47.460;19.034;2022-12-19T14:51:54;102642.25;;;4.02;69.31
57894;BME280;43710;47.460;19.034;2022-12-19T14:58:41;102642.50;;;3.92;67.15
57894;BME280;43710;47.460;19.034;2022-12-19T15:02:01;102631.66;;;3.64;68.80
57894;BME280;43710;47.460;19.034;2022-12-19T15:05:07;102633.37;;;3.34;75.71
57894;BME280;43710;47.460;19.034;2022-12-19T15:08:25;102640.56;;;3.48;76.50
57894;BME280;43710;47.460;19.034;2022-12-19T15:11:54;102639.19;;;3.75;75.15
57894;BME280;43710;47.460;19.034;2022-12-19T15:15:42;102639.28;;;3.82;71.36
57894;BME280;43710;47.460;19.034;2022-12-19T15:18:49;102649.38;;;3.64;75.15
57894;BME280;43710;47.460;19.034;2022-12-19T15:21:54;102649.38;;;3.41;67.95
57894;BME280;43710;47.460;19.034;2022-12-19T15:24:56;102653.00;;;3.25;80.93
57894;BME280;43710;47.460;19.034;2022-12-19T15:27:59;102643.16;;;3.57;91.59
57894;BME280;43710;47.460;19.034;2022-12-19T15:31:05;102643.00;;;3.73;83.81
57894;BME280;43710;47.460;19.034;2022-12-19T15:34:30;102644.66;;;3.74;71.83
57894;BME280;43710;47.460;19.034;2022-12-19T15:37:43;102650.75;;;3.37;74.11
57894;BME280;43710;47.460;19.034;2022-12-19T15:40:46;102661.94;;;3.47;76.49
57894;BME280;43710;47.460;19.034;2022-12-19T15:43:49;102655.81;;;3.69;86.98
57894;BME280;43710;47.460;19.034;2022-12-19T15:47:35;102649.00;;;3.52;68.32
57894;BME280;43710;47.460;19.034;2022-12-19T15:50:38;102655.47;;;3.26;82.76
57894;BME280;43710;47.460;19.034;2022-12-19T15:53:40;102647.94;;;3.61;75.86
57894;BME280;43710;47.460;19.034;2022-12-19T15:56:46;102653.63;;;3.50;82.35
57894;BME280;43710;47.460;19.034;2022-12-19T15:59:50;102649.75;;;3.38;80.95
57894;BME280;43710;47.460;19.034;2022-12-19T16:02:54;102646.56;;;3.65;72.55
57894;BME280;43710;47.460;19.034;2022-12-19T16:06:17;102647.47;;;3.58;74.83
57894;BME280;43710;47.460;19.034;2022-12-19T16:09:20;102642.44;;;3.40;74.52
57894;BME280;43710;47.460;19.034;2022-12-19T16:12:28;102642.28;;;3.18;69.56
57894;BME280;43710;47.460;19.034;2022-12-19T16:15:33;102636.63;;;3.21;79.12
57894;BME280;43710;47.460;19.034;2022-12-19T16:18:35;102639.66;;;3.10;72.13
57894;BME280;43710;47.460;19.034;2022-12-19T16:21:37;102635.25;;;3.25;74.82
57894;BME280;43710;47.460;19.034;2022-12-19T16:24:40;102631.09;;;3.00;69.28
57894;BME280;43710;47.460;19.034;2022-12-19T16:27:42;102628.59;;;3.29;72.41
57894;BME280;43710;47.460;19.034;2022-12-19T16:30:45;102636.81;;;2.89;69.35
57894;BME280;43710;47.460;19.034;2022-12-19T16:33:48;102636.84;;;2.80;70.91
57894;BME280;43710;47.460;19.034;2022-12-19T16:36:50;102634.38;;;2.79;85.78
57894;BME280;43710;47.460;19.034;2022-12-19T16:39:52;102621.31;;;3.32;78.75
57894;BME280;43710;47.460;19.034;2022-12-19T16:43:11;102617.00;;;3.30;72.48
